Time;durP1;ratioP1;P1;durP2;ratioP2;P2;SDS_P1;SDS_P2;PMS_P1;PMS_P2;Temp;Humidity;BMP_temperature;BMP_pressure;BME280_temperature;BME280_humidity;BME280_pressure;Samples;Min_cycle;Max_cycle;Signal;HPM_P1;HPM_P2
2021/06/24 00:01:22;;;;;;;7.60;2.47;;;16.20;76.00;;;;;;5094559;28;20028;-80
2021/06/24 00:03:48;;;;;;;7.45;2.85;;;16.20;76.30;;;;;;5093814;28;20058;-79
2021/06/24 00:06:14;;;;;;;8.05;3.10;;;16.20;76.00;;;;;;5093999;28;20106;-80
2021/06/24 00:08:39;;;;;;;11.77;4.15;;;16.10;76.40;;;;;;5101475;28;20004;-79
2021/06/24 00:11:06;;;;;;;7.20;2.95;;;16.10;76.20;;;;;;5105061;28;20020;-78
2021/06/24 00:13:32;;;;;;;9.52;4.30;;;16.00;76.60;;;;;;5097539;28;20031;-79
2021/06/24 00:15:59;;;;;;;10.05;3.67;;;16.00;76.20;;;;;;5093050;28;20028;-79
2021/06/24 00:18:25;;;;;;;8.75;3.90;;;16.00;76.30;;;;;;5092825;28;20040;-80
2021/06/24 00:20:52;;;;;;;7.97;3.35;;;15.90;76.40;;;;;;5092415;28;20031;-80
2021/06/24 00:23:18;;;;;;;9.18;3.63;;;15.90;77.10;;;;;;5091804;28;20154;-80
2021/06/24 00:25:44;;;;;;;5.38;2.58;;;15.90;77.10;;;;;;5091785;28;20024;-80
2021/06/24 00:28:16;;;;;;;6.32;3.38;;;15.90;77.10;;;;;;5092544;28;20073;-81
2021/06/24 00:30:46;;;;;;;9.57;4.22;;;16.00;76.80;;;;;;5093004;28;20024;-79
2021/06/24 00:33:13;;;;;;;10.07;3.78;;;15.90;76.60;;;;;;5092640;28;20386;-80
2021/06/24 00:35:38;;;;;;;10.93;3.97;;;15.90;76.50;;;;;;5094189;28;20021;-80
2021/06/24 00:38:04;;;;;;;15.73;4.10;;;15.90;77.20;;;;;;5092947;28;20031;-79
2021/06/24 00:40:36;;;;;;;11.13;3.53;;;15.90;76.50;;;;;;5092197;28;20024;-81
2021/06/24 00:43:03;;;;;;;4.18;1.90;;;15.90;76.50;;;;;;5093017;28;20024;-80
2021/06/24 00:45:29;;;;;;;11.10;4.07;;;15.90;77.00;;;;;;5092772;28;20035;-80
2021/06/24 00:47:57;;;;;;;11.82;4.57;;;15.90;76.70;;;;;;5095999;28;20036;-79
2021/06/24 00:50:23;;;;;;;9.52;4.03;;;15.90;76.70;;;;;;5093365;28;20024;-80
2021/06/24 00:52:48;;;;;;;8.25;3.90;;;15.90;76.70;;;;;;5091546;28;20103;-79
2021/06/24 00:55:14;;;;;;;13.15;4.63;;;15.90;76.80;;;;;;5091652;28;20082;-79
2021/06/24 00:57:40;;;;;;;13.20;4.97;;;15.90;76.70;;;;;;5091777;28;20403;-80
2021/06/24 01:00:08;;;;;;;6.82;4.13;;;15.80;76.50;;;;;;5091685;28;20020;-80
2021/06/24 01:02:36;;;;;;;8.88;4.03;;;15.80;76.60;;;;;;5091779;28;20016;-80
2021/06/24 01:05:02;;;;;;;8.65;3.92;;;15.80;76.70;;;;;;5093528;28;20395;-80
2021/06/24 01:07:27;;;;;;;8.40;3.95;;;15.70;76.70;;;;;;5092612;28;20086;-79
2021/06/24 01:09:53;;;;;;;13.15;5.25;;;15.80;77.00;;;;;;5093633;28;20529;-81
2021/06/24 01:12:20;;;;;;;9.30;4.28;;;15.70;76.70;;;;;;5095562;28;20115;-79
2021/06/24 01:14:48;;;;;;;9.98;3.83;;;15.70;76.80;;;;;;5094190;28;20092;-79
2021/06/24 01:17:14;;;;;;;8.65;3.40;;;15.70;76.90;;;;;;5091987;28;20039;-80
2021/06/24 01:19:40;;;;;;;10.23;3.28;;;15.70;77.10;;;;;;5092656;28;20455;-80
2021/06/24 01:22:07;;;;;;;7.28;3.40;;;15.80;77.40;;;;;;5091957;28;20028;-79
2021/06/24 01:24:33;;;;;;;13.05;4.47;;;15.70;77.40;;;;;;5092286;28;20097;-80
2021/06/24 01:26:58;;;;;;;5.25;3.25;;;15.70;77.30;;;;;;5092947;28;20028;-79
2021/06/24 01:29:24;;;;;;;10.82;5.15;;;15.60;77.30;;;;;;5092839;28;20115;-79
2021/06/24 01:31:50;;;;;;;7.25;4.18;;;15.60;77.40;;;;;;5091852;28;20032;-80
2021/06/24 01:34:15;;;;;;;9.50;4.22;;;15.70;77.30;;;;;;5092171;28;20028;-80
2021/06/24 01:36:41;;;;;;;10.30;3.58;;;15.60;77.40;;;;;;5095895;28;20069;-81
2021/06/24 01:39:09;;;;;;;12.48;5.65;;;15.60;77.40;;;;;;5095407;28;20020;-80
2021/06/24 01:41:34;;;;;;;9.40;3.33;;;15.60;77.30;;;;;;5095294;28;20098;-80
2021/06/24 01:44:00;;;;;;;7.88;3.60;;;15.60;77.50;;;;;;5095420;28;20440;-79
2021/06/24 01:46:26;;;;;;;9.00;3.90;;;15.60;77.30;;;;;;5095101;28;20027;-79
2021/06/24 01:48:52;;;;;;;10.35;5.40;;;15.50;77.30;;;;;;5096149;28;20523;-80
2021/06/24 01:51:17;;;;;;;11.82;5.05;;;15.50;77.30;;;;;;5095854;28;20313;-80
2021/06/24 01:53:43;;;;;;;9.93;4.32;;;15.50;77.80;;;;;;5096973;28;20032;-80
2021/06/24 01:56:09;;;;;;;10.52;4.40;;;15.50;77.60;;;;;;5095938;28;20016;-80
2021/06/24 01:58:35;;;;;;;10.35;4.35;;;15.60;77.50;;;;;;5096254;28;20024;-79
2021/06/24 02:01:02;;;;;;;9.38;4.47;;;15.50;77.70;;;;;;5096413;28;20069;-80
2021/06/24 02:03:27;;;;;;;10.85;4.85;;;15.50;77.80;;;;;;5095636;28;20012;-80
2021/06/24 02:05:55;;;;;;;13.48;4.55;;;15.50;77.50;;;;;;5096602;28;20031;-80
2021/06/24 02:08:24;;;;;;;13.80;4.82;;;15.60;77.50;;;;;;5096543;28;20457;-80
2021/06/24 02:10:51;;;;;;;6.50;2.47;;;15.50;77.50;;;;;;5097462;28;20020;-80
2021/06/24 02:13:17;;;;;;;12.85;4.45;;;15.40;77.60;;;;;;5096492;28;20028;-80
2021/06/24 02:15:46;;;;;;;4.75;2.65;;;15.50;77.60;;;;;;5099971;28;20384;-80
2021/06/24 02:18:12;;;;;;;8.73;5.18;;;15.50;77.70;;;;;;5110548;28;20088;-79
2021/06/24 02:20:39;;;;;;;8.45;4.35;;;15.40;77.60;;;;;;5101237;28;20024;-80
2021/06/24 02:23:05;;;;;;;9.05;4.63;;;15.50;77.80;;;;;;5095685;28;20452;-80
2021/06/24 02:25:34;;;;;;;13.63;5.30;;;15.50;77.90;;;;;;5096329;28;20099;-80
2021/06/24 02:28:00;;;;;;;7.95;4.22;;;15.40;77.80;;;;;;5096274;28;20023;-80
2021/06/24 02:30:27;;;;;;;10.65;4.93;;;15.50;78.30;;;;;;5096307;28;20107;-80
2021/06/24 02:32:52;;;;;;;7.05;3.72;;;15.40;77.70;;;;;;5095162;28;20020;-79
2021/06/24 02:35:19;;;;;;;9.85;5.22;;;15.40;78.00;;;;;;5095507;28;20115;-81
2021/06/24 02:37:46;;;;;;;9.02;4.75;;;15.40;77.80;;;;;;5095529;28;20102;-80
2021/06/24 02:40:14;;;;;;;9.20;5.50;;;15.40;78.00;;;;;;5096118;28;20024;-79
2021/06/24 02:42:40;;;;;;;10.90;5.13;;;15.40;78.00;;;;;;5096342;28;20016;-80
2021/06/24 02:45:08;;;;;;;5.65;3.45;;;15.40;78.00;;;;;;5095963;28;20047;-79
2021/06/24 02:47:34;;;;;;;10.27;5.07;;;15.30;78.20;;;;;;5094807;28;20020;-79
2021/06/24 02:50:00;;;;;;;8.20;3.60;;;15.30;78.30;;;;;;5095916;28;20119;-79
2021/06/24 02:52:25;;;;;;;3.88;2.53;;;15.20;78.30;;;;;;5095110;28;20020;-80
2021/06/24 02:54:52;;;;;;;13.18;4.03;;;15.20;78.50;;;;;;5096231;28;20031;-79
2021/06/24 02:57:19;;;;;;;12.60;4.00;;;15.20;78.80;;;;;;5095472;28;20024;-80
2021/06/24 02:59:45;;;;;;;10.73;6.20;;;15.20;78.90;;;;;;5095462;28;20460;-80
2021/06/24 03:02:11;;;;;;;11.90;4.65;;;15.20;78.80;;;;;;5095263;28;20012;-79
2021/06/24 03:04:37;;;;;;;5.15;2.17;;;15.20;78.80;;;;;;5099279;28;20036;-79
2021/06/24 03:07:03;;;;;;;7.30;5.22;;;15.20;79.10;;;;;;5095974;28;20376;-80
2021/06/24 03:09:29;;;;;;;9.85;5.63;;;15.20;79.10;;;;;;5094934;28;20024;-80
2021/06/24 03:11:54;;;;;;;11.15;5.35;;;15.20;79.50;;;;;;5093936;28;20027;-80
2021/06/24 03:14:21;;;;;;;10.68;5.03;;;15.20;79.30;;;;;;5094358;28;20468;-80
2021/06/24 03:16:47;;;;;;;11.25;4.65;;;15.10;79.10;;;;;;5094940;28;20062;-80
2021/06/24 03:19:13;;;;;;;12.75;5.75;;;15.20;79.10;;;;;;5094900;28;20204;-81
2021/06/24 03:21:39;;;;;;;10.95;4.95;;;15.10;79.30;;;;;;5093503;28;20035;-80
2021/06/24 03:24:06;;;;;;;8.52;5.13;;;15.10;79.20;;;;;;5094843;28;20062;-80
2021/06/24 03:26:31;;;;;;;12.88;5.53;;;15.10;79.40;;;;;;5093833;28;20113;-81
2021/06/24 03:28:57;;;;;;;10.93;4.53;;;15.10;79.50;;;;;;5093195;28;20063;-80
2021/06/24 03:31:26;;;;;;;7.15;4.30;;;15.00;79.50;;;;;;5092962;28;20028;-80
2021/06/24 03:33:51;;;;;;;11.57;5.65;;;15.10;79.60;;;;;;5093274;28;20020;-80
2021/06/24 03:36:18;;;;;;;7.43;4.00;;;15.10;79.40;;;;;;5093637;28;20081;-80
2021/06/24 03:38:46;;;;;;;10.77;5.15;;;15.00;79.50;;;;;;5093199;28;20050;-79
2021/06/24 03:41:13;;;;;;;8.85;4.88;;;15.00;79.50;;;;;;5093389;28;20027;-80
2021/06/24 03:43:39;;;;;;;10.70;4.20;;;15.00;79.50;;;;;;5093112;28;20028;-80
2021/06/24 03:46:05;;;;;;;6.72;3.58;;;15.00;79.50;;;;;;5094274;28;20073;-79
2021/06/24 03:48:31;;;;;;;5.18;2.65;;;14.90;79.60;;;;;;5094004;28;20020;-80
2021/06/24 03:50:56;;;;;;;11.00;4.20;;;14.90;79.70;;;;;;5095035;28;20392;-78
2021/06/24 03:53:22;;;;;;;7.15;3.50;;;15.00;79.70;;;;;;5094865;28;20059;-80
2021/06/24 03:55:47;;;;;;;7.13;3.45;;;14.90;79.60;;;;;;5095084;28;20433;-80
2021/06/24 03:58:14;;;;;;;11.00;4.50;;;14.90;79.50;;;;;;5094795;28;20020;-80
2021/06/24 04:00:42;;;;;;;11.77;5.32;;;15.00;79.50;;;;;;5094376;28;20460;-80
2021/06/24 04:03:09;;;;;;;12.48;5.53;;;15.00;79.40;;;;;;5093432;28;20016;-81
2021/06/24 04:05:35;;;;;;;7.45;3.05;;;15.00;79.50;;;;;;5094664;28;20492;-80
2021/06/24 04:08:01;;;;;;;6.50;3.33;;;15.10;79.60;;;;;;5093900;28;20027;-81
2021/06/24 04:10:29;;;;;;;4.97;3.05;;;15.00;79.40;;;;;;5100157;28;20032;-79
2021/06/24 04:12:55;;;;;;;5.57;2.90;;;15.00;79.40;;;;;;5104487;28;20020;-80
2021/06/24 04:15:23;;;;;;;9.85;4.53;;;15.00;79.50;;;;;;5094147;28;20030;-80
2021/06/24 04:17:49;;;;;;;10.40;4.38;;;15.00;79.30;;;;;;5093342;28;20036;-80
2021/06/24 04:20:14;;;;;;;10.65;5.60;;;15.00;79.60;;;;;;5094406;28;20031;-80
2021/06/24 04:22:40;;;;;;;9.43;4.60;;;15.10;79.50;;;;;;5095340;28;20028;-82
2021/06/24 04:25:08;;;;;;;14.70;5.50;;;15.00;79.50;;;;;;5105527;28;20032;-82
2021/06/24 04:27:33;;;;;;;10.02;4.80;;;15.00;79.50;;;;;;5098158;28;20030;-80
2021/06/24 04:29:59;;;;;;;9.43;5.55;;;15.10;79.60;;;;;;5095783;28;20111;-81
2021/06/24 04:32:24;;;;;;;10.48;5.07;;;15.10;79.60;;;;;;5093142;28;20024;-81
2021/06/24 04:34:50;;;;;;;6.55;3.95;;;15.10;79.30;;;;;;5094276;28;20023;-80
2021/06/24 04:37:16;;;;;;;11.35;5.50;;;15.20;79.10;;;;;;5094245;28;20042;-80
2021/06/24 04:39:41;;;;;;;10.43;4.55;;;15.20;79.00;;;;;;5095137;28;20076;-81
2021/06/24 04:42:07;;;;;;;8.07;3.75;;;15.20;79.20;;;;;;5094191;28;20027;-80
2021/06/24 04:44:33;;;;;;;14.82;5.30;;;15.20;79.00;;;;;;5092380;28;20456;-80
2021/06/24 04:46:58;;;;;;;6.13;2.97;;;15.30;79.00;;;;;;5092640;28;20131;-80
2021/06/24 04:49:24;;;;;;;9.23;3.90;;;15.20;78.80;;;;;;5092039;28;20020;-81
2021/06/24 04:51:50;;;;;;;5.75;3.03;;;15.30;78.90;;;;;;5092996;28;20028;-81
2021/06/24 04:54:16;;;;;;;6.18;2.78;;;15.30;78.80;;;;;;5093601;28;20028;-80
2021/06/24 04:56:41;;;;;;;8.90;4.93;;;15.30;78.60;;;;;;5099223;28;20480;-79
2021/06/24 04:59:07;;;;;;;7.38;3.95;;;15.30;78.50;;;;;;5097166;28;20024;-80
2021/06/24 05:01:32;;;;;;;5.75;2.45;;;15.40;78.50;;;;;;5094837;28;20525;-79
2021/06/24 05:03:58;;;;;;;6.80;3.10;;;15.50;78.60;;;;;;5093065;28;20035;-80
2021/06/24 05:06:24;;;;;;;7.13;4.65;;;15.40;78.40;;;;;;5093303;28;20051;-79
2021/06/24 05:08:50;;;;;;;10.25;5.70;;;15.50;78.90;;;;;;5092903;28;20020;-81
2021/06/24 05:11:16;;;;;;;8.13;4.05;;;15.50;79.00;;;;;;5095635;28;20308;-80
2021/06/24 05:13:42;;;;;;;13.82;5.00;;;15.60;79.00;;;;;;5096575;28;20031;-80
2021/06/24 05:16:07;;;;;;;9.27;4.40;;;15.60;78.90;;;;;;5095999;28;20021;-81
2021/06/24 05:18:34;;;;;;;12.05;4.22;;;15.60;78.50;;;;;;5097368;28;20189;-81
2021/06/24 05:21:00;;;;;;;12.65;5.47;;;15.60;78.00;;;;;;5096707;28;20027;-79
2021/06/24 05:23:26;;;;;;;6.75;3.75;;;15.60;78.40;;;;;;5096318;28;20016;-79
2021/06/24 05:25:52;;;;;;;14.25;6.07;;;15.70;78.10;;;;;;5096400;28;20059;-79
2021/06/24 05:28:17;;;;;;;8.80;3.22;;;15.70;78.20;;;;;;5097072;28;20550;-81
2021/06/24 05:30:45;;;;;;;9.65;4.45;;;15.70;77.90;;;;;;5096248;28;20472;-80
2021/06/24 05:33:11;;;;;;;10.43;5.03;;;15.70;78.30;;;;;;5096756;28;20036;-80
2021/06/24 05:35:37;;;;;;;11.27;5.30;;;15.70;78.20;;;;;;5096047;28;20031;-81
2021/06/24 05:38:02;;;;;;;9.02;4.18;;;15.80;78.50;;;;;;5091122;28;20081;-81
2021/06/24 05:40:31;;;;;;;6.70;3.20;;;15.80;78.30;;;;;;5079864;28;20032;-78
2021/06/24 05:42:56;;;;;;;9.70;5.10;;;15.90;77.40;;;;;;5091187;28;20045;-80
2021/06/24 05:45:28;;;;;;;9.93;4.18;;;15.90;77.50;;;;;;5075943;28;20485;-80
2021/06/24 05:47:55;;;;;;;8.75;4.35;;;15.90;77.60;;;;;;5075473;28;20044;-80
2021/06/24 05:50:21;;;;;;;10.27;4.40;;;15.80;77.40;;;;;;5075570;28;20078;-79
2021/06/24 05:52:47;;;;;;;10.00;3.83;;;15.80;77.40;;;;;;5075038;28;20027;-79
2021/06/24 05:55:13;;;;;;;8.13;5.20;;;15.80;77.20;;;;;;5074499;28;20486;-79
2021/06/24 05:57:38;;;;;;;6.75;3.45;;;15.90;77.50;;;;;;5086207;28;20031;-78
2021/06/24 06:00:06;;;;;;;6.50;2.63;;;15.90;77.20;;;;;;5092383;28;20473;-79
2021/06/24 06:02:32;;;;;;;7.72;4.13;;;15.90;77.20;;;;;;5094159;28;20050;-79
2021/06/24 06:04:57;;;;;;;5.32;2.75;;;16.00;78.00;;;;;;5094285;28;20055;-79
2021/06/24 06:07:23;;;;;;;7.93;3.10;;;16.10;77.00;;;;;;5094114;28;20032;-79
2021/06/24 06:09:48;;;;;;;8.90;3.85;;;16.10;76.80;;;;;;5093867;28;20065;-78
2021/06/24 06:12:14;;;;;;;8.70;3.50;;;16.10;76.80;;;;;;5092985;28;20043;-78
2021/06/24 06:14:40;;;;;;;9.13;3.42;;;16.20;76.90;;;;;;5093862;28;20130;-79
2021/06/24 06:17:05;;;;;;;7.25;1.92;;;16.20;76.60;;;;;;5094850;28;20020;-79
2021/06/24 06:19:31;;;;;;;12.73;4.70;;;16.20;76.30;;;;;;5095118;28;20020;-79
2021/06/24 06:21:57;;;;;;;8.10;2.95;;;16.30;76.10;;;;;;5093797;28;20475;-79
2021/06/24 06:24:22;;;;;;;7.50;4.10;;;16.30;76.60;;;;;;5092520;28;20464;-78
2021/06/24 06:26:48;;;;;;;7.57;2.97;;;16.40;75.80;;;;;;5091041;28;20024;-79
2021/06/24 06:29:14;;;;;;;9.65;3.38;;;16.50;75.80;;;;;;5095036;28;20024;-78
2021/06/24 06:31:40;;;;;;;5.90;2.75;;;16.60;75.50;;;;;;5109883;28;20023;-78
2021/06/24 06:34:07;;;;;;;8.05;3.42;;;16.70;75.30;;;;;;5104480;28;20071;-79
2021/06/24 06:36:32;;;;;;;8.05;3.25;;;16.80;74.90;;;;;;5094958;28;20120;-80
2021/06/24 06:38:58;;;;;;;8.18;2.78;;;16.90;74.50;;;;;;5094332;28;20052;-79
2021/06/24 06:41:24;;;;;;;5.28;1.98;;;17.00;73.80;;;;;;5087508;28;20507;-81
2021/06/24 06:43:49;;;;;;;6.57;2.92;;;17.10;73.70;;;;;;5093310;28;20080;-82
2021/06/24 06:46:15;;;;;;;11.10;4.22;;;17.20;72.80;;;;;;5091129;28;20460;-80
2021/06/24 06:48:41;;;;;;;6.88;3.83;;;17.20;72.10;;;;;;5088591;28;20024;-81
2021/06/24 06:51:06;;;;;;;7.93;3.78;;;17.30;72.00;;;;;;5083079;28;20031;-83
2021/06/24 06:53:32;;;;;;;7.45;3.05;;;17.30;72.40;;;;;;5096376;28;20115;-81
2021/06/24 06:55:58;;;;;;;15.07;5.40;;;17.30;71.60;;;;;;5094503;28;20111;-81
2021/06/24 06:58:24;;;;;;;7.75;4.05;;;17.30;71.30;;;;;;5090510;28;20065;-83
2021/06/24 07:00:50;;;;;;;11.35;4.63;;;17.30;71.50;;;;;;5092574;28;20024;-83
2021/06/24 07:03:15;;;;;;;11.00;4.50;;;17.40;71.30;;;;;;5095121;28;20024;-82
2021/06/24 07:05:41;;;;;;;11.50;5.22;;;17.40;71.00;;;;;;5093759;28;20040;-82
2021/06/24 07:08:07;;;;;;;6.70;2.95;;;17.50;70.50;;;;;;5093984;28;20427;-82
2021/06/24 07:10:33;;;;;;;9.38;3.25;;;17.50;70.40;;;;;;5094365;28;20027;-81
2021/06/24 07:12:59;;;;;;;14.13;3.40;;;17.60;70.70;;;;;;5094137;28;20020;-80
2021/06/24 07:15:25;;;;;;;11.13;4.47;;;17.60;69.70;;;;;;5093956;28;20049;-80
2021/06/24 07:17:51;;;;;;;7.85;4.47;;;17.70;69.20;;;;;;5093968;28;20062;-82
2021/06/24 07:20:17;;;;;;;3.95;2.08;;;17.70;69.30;;;;;;5094203;28;20024;-81
2021/06/24 07:22:43;;;;;;;7.18;3.00;;;17.70;70.30;;;;;;5094139;28;20077;-81
2021/06/24 07:25:10;;;;;;;7.03;3.50;;;17.80;69.70;;;;;;5093928;28;20044;-82
2021/06/24 07:27:36;;;;;;;6.00;3.20;;;17.80;69.40;;;;;;5092155;28;20039;-80
2021/06/24 07:30:04;;;;;;;7.50;2.75;;;17.90;70.40;;;;;;5092329;28;20027;-81
2021/06/24 07:32:30;;;;;;;7.53;3.88;;;18.10;69.40;;;;;;5092318;28;20020;-82
2021/06/24 07:34:55;;;;;;;10.20;3.53;;;18.20;68.20;;;;;;5091967;28;20478;-81
2021/06/24 07:37:21;;;;;;;7.15;4.10;;;18.30;67.30;;;;;;5092538;28;20069;-81
2021/06/24 07:39:47;;;;;;;10.32;4.13;;;18.30;66.40;;;;;;5092080;28;20118;-81
2021/06/24 07:42:13;;;;;;;6.20;3.83;;;18.40;66.60;;;;;;5092380;28;20040;-82
2021/06/24 07:44:38;;;;;;;9.27;3.70;;;18.40;66.60;;;;;;5092672;28;20024;-83
2021/06/24 07:47:04;;;;;;;9.75;4.15;;;18.50;65.80;;;;;;5093426;28;20016;-82
2021/06/24 07:49:30;;;;;;;9.95;3.88;;;18.60;66.00;;;;;;5098084;28;20031;-80
2021/06/24 07:51:55;;;;;;;5.50;2.22;;;18.70;65.10;;;;;;5093665;28;20483;-82
2021/06/24 07:54:21;;;;;;;6.10;2.55;;;18.80;66.40;;;;;;5093030;28;20027;-81
2021/06/24 07:56:46;;;;;;;7.53;4.13;;;18.90;66.20;;;;;;5092098;28;20028;-82
2021/06/24 07:59:14;;;;;;;7.30;3.10;;;18.90;65.10;;;;;;5093125;28;20032;-82
2021/06/24 08:01:41;;;;;;;10.05;3.67;;;18.80;66.10;;;;;;5094297;28;20060;-81
2021/06/24 08:04:06;;;;;;;6.82;2.90;;;18.90;66.00;;;;;;5093211;28;20142;-83
2021/06/24 08:06:32;;;;;;;5.95;2.80;;;18.80;66.00;;;;;;5093210;28;20048;-80
2021/06/24 08:08:58;;;;;;;9.52;3.60;;;18.70;65.70;;;;;;5093176;28;20020;-81
2021/06/24 08:11:24;;;;;;;5.60;2.60;;;18.80;65.80;;;;;;5092249;28;20127;-82
2021/06/24 08:13:49;;;;;;;6.45;2.15;;;18.80;66.80;;;;;;5093944;28;20107;-83
2021/06/24 08:16:16;;;;;;;7.05;3.13;;;18.80;66.50;;;;;;5093146;28;20583;-82
2021/06/24 08:18:42;;;;;;;6.13;2.88;;;18.90;65.30;;;;;;5092781;28;20040;-81
2021/06/24 08:21:09;;;;;;;8.70;3.95;;;18.90;64.90;;;;;;5092695;28;20054;-83
2021/06/24 08:23:34;;;;;;;6.45;2.28;;;18.90;65.40;;;;;;5091943;28;20024;-82
2021/06/24 08:26:00;;;;;;;5.40;2.08;;;19.00;64.70;;;;;;5092372;28;20073;-81
2021/06/24 08:28:26;;;;;;;3.80;1.85;;;19.00;66.20;;;;;;5093936;28;20547;-81
2021/06/24 08:30:53;;;;;;;4.25;1.88;;;18.90;66.80;;;;;;5095615;28;20073;-81
2021/06/24 08:33:18;;;;;;;8.13;3.53;;;18.80;65.70;;;;;;5094048;28;20020;-80
2021/06/24 08:35:44;;;;;;;7.68;3.42;;;18.80;65.20;;;;;;5094200;28;20371;-82
2021/06/24 08:38:11;;;;;;;4.28;2.28;;;18.70;65.60;;;;;;5112476;28;20070;-80
2021/06/24 08:40:39;;;;;;;7.68;4.43;;;18.60;67.30;;;;;;5102004;28;20028;-82
2021/06/24 08:43:06;;;;;;;4.13;1.95;;;18.60;65.50;;;;;;5100509;28;20106;-81
2021/06/24 08:45:31;;;;;;;8.07;3.97;;;18.60;67.40;;;;;;5104651;28;20062;-82
2021/06/24 08:48:00;;;;;;;10.70;4.22;;;18.70;66.20;;;;;;5095309;28;20026;-83
2021/06/24 08:50:26;;;;;;;9.98;4.43;;;18.70;65.30;;;;;;5093227;28;20448;-81
2021/06/24 08:52:51;;;;;;;5.55;2.20;;;18.70;64.60;;;;;;5092386;28;20032;-82
2021/06/24 08:55:18;;;;;;;8.82;3.65;;;18.70;67.20;;;;;;5092430;28;20032;-82
2021/06/24 08:57:44;;;;;;;6.88;2.45;;;18.60;66.00;;;;;;5092307;28;20117;-81
2021/06/24 09:00:11;;;;;;;7.32;3.75;;;18.70;67.80;;;;;;5091695;28;20028;-82
2021/06/24 09:02:38;;;;;;;6.38;3.58;;;18.60;67.70;;;;;;5092281;28;20024;-83
2021/06/24 09:05:04;;;;;;;6.53;2.42;;;18.70;66.50;;;;;;5093538;28;20040;-82
2021/06/24 09:07:31;;;;;;;6.68;3.38;;;18.60;67.40;;;;;;5091672;28;20499;-81
2021/06/24 09:09:58;;;;;;;13.25;4.50;;;18.60;66.40;;;;;;5092184;28;20020;-82
2021/06/24 09:12:25;;;;;;;6.50;3.50;;;18.70;65.30;;;;;;5093619;28;20024;-82
2021/06/24 09:14:56;;;;;;;8.52;4.93;;;18.60;65.10;;;;;;5092336;28;20093;-82
2021/06/24 09:17:42;;;;;;;6.35;3.95;;;18.70;65.30;;;;;;5093443;28;20032;-82
2021/06/24 09:20:22;;;;;;;9.68;5.07;;;18.70;65.90;;;;;;5092400;28;20028;-82
2021/06/24 09:23:06;;;;;;;12.38;5.35;;;18.60;65.30;;;;;;5092835;28;20081;-82
2021/06/24 09:25:32;;;;;;;9.45;4.65;;;18.50;65.60;;;;;;5092138;28;20036;-82
2021/06/24 09:27:58;;;;;;;11.38;5.00;;;18.50;65.80;;;;;;5091622;28;20030;-82
2021/06/24 09:30:31;;;;;;;6.65;3.47;;;18.50;66.10;;;;;;5091857;28;20099;-83
2021/06/24 09:33:10;;;;;;;5.80;2.00;;;18.50;67.20;;;;;;5092358;28;20028;-84
2021/06/24 09:35:36;;;;;;;9.50;5.25;;;18.50;67.60;;;;;;5091533;28;20043;-84
2021/06/24 09:38:14;;;;;;;7.70;4.95;;;18.50;66.40;;;;;;5090762;28;20111;-85
2021/06/24 09:40:54;;;;;;;10.68;5.90;;;18.50;65.50;;;;;;5091245;28;20119;-84
2021/06/24 09:43:32;;;;;;;7.03;3.50;;;18.40;65.60;;;;;;5091316;28;20047;-83
2021/06/24 09:46:24;;;;;;;9.35;5.60;;;18.40;66.10;;;;;;5091148;28;20066;-83
2021/06/24 09:49:01;;;;;;;10.20;5.68;;;18.40;65.80;;;;;;5092719;28;20021;-84
2021/06/24 09:51:33;;;;;;;11.35;5.80;;;18.40;67.00;;;;;;5092852;28;20401;-83
2021/06/24 09:54:01;;;;;;;8.60;5.32;;;18.30;66.50;;;;;;5091772;28;20024;-84
2021/06/24 09:56:37;;;;;;;15.15;6.32;;;18.20;67.00;;;;;;5093563;28;20063;-83
2021/06/24 09:59:05;;;;;;;10.25;6.32;;;18.20;66.80;;;;;;5096093;28;20028;-85
2021/06/24 10:01:40;;;;;;;11.93;5.60;;;18.20;66.30;;;;;;5096008;28;20020;-83
2021/06/24 10:04:28;;;;;;;11.57;5.68;;;18.20;66.90;;;;;;5095748;28;20418;-84
2021/06/24 10:06:56;;;;;;;11.30;5.72;;;18.10;66.70;;;;;;5095990;28;20077;-84
2021/06/24 10:09:23;;;;;;;10.85;6.38;;;18.20;67.30;;;;;;5096125;28;20020;-84
2021/06/24 10:11:53;;;;;;;9.45;5.80;;;18.20;66.80;;;;;;5096214;28;20024;-83
2021/06/24 10:14:19;;;;;;;;;;;18.30;69.10;;;;;;5096752;28;20590;-82
2021/06/24 10:17:08;;;;;;;11.25;6.72;;;18.40;70.10;;;;;;5096855;28;20336;-82
2021/06/24 10:19:52;;;;;;;9.85;5.68;;;18.50;69.20;;;;;;5084368;28;20070;-80
2021/06/24 10:22:22;;;;;;;10.43;7.03;;;18.50;68.20;;;;;;5096816;28;20077;-81
2021/06/24 10:25:04;;;;;;;9.65;7.00;;;18.50;68.20;;;;;;5095858;28;20047;-83
2021/06/24 10:27:33;;;;;;;11.52;4.85;;;18.60;68.50;;;;;;5094971;28;20020;-81
2021/06/24 10:30:13;;;;;;;10.32;5.80;;;18.70;68.80;;;;;;5094850;28;20020;-82
2021/06/24 10:32:41;;;;;;;10.85;6.00;;;18.80;68.10;;;;;;5095967;28;20024;-82
2021/06/24 10:35:22;;;;;;;13.65;7.03;;;18.90;66.60;;;;;;5101821;28;20073;-83
2021/06/24 10:37:50;;;;;;;9.32;6.03;;;18.90;66.00;;;;;;5108481;28;20016;-83
2021/06/24 10:40:37;;;;;;;9.80;6.80;;;18.90;66.00;;;;;;5101767;28;20027;-80
2021/06/24 10:43:09;;;;;;;10.02;6.00;;;19.00;66.30;;;;;;5100884;28;20090;-80
2021/06/24 10:45:37;;;;;;;8.48;5.50;;;19.00;65.80;;;;;;5113855;28;20028;-82
2021/06/24 10:48:21;;;;;;;8.25;3.55;;;19.00;65.70;;;;;;5095586;28;20452;-81
2021/06/24 10:50:59;;;;;;;6.70;3.83;;;19.00;66.00;;;;;;5093657;28;20024;-81
2021/06/24 10:53:25;;;;;;;5.68;2.72;;;19.00;66.50;;;;;;5093349;28;20020;-82
2021/06/24 10:55:51;;;;;;;9.77;5.53;;;19.00;66.40;;;;;;5093363;28;20016;-82
2021/06/24 10:58:19;;;;;;;5.13;1.80;;;19.10;66.60;;;;;;5093525;28;20020;-81
2021/06/24 11:00:50;;;;;;;4.75;2.67;;;19.10;66.80;;;;;;5093306;28;20024;-84
2021/06/24 11:03:30;;;;;;;5.05;1.65;;;19.30;66.60;;;;;;5093417;28;20027;-84
2021/06/24 11:06:14;;;;;;;6.03;4.05;;;19.40;66.80;;;;;;5093769;28;20468;-84
2021/06/24 11:08:41;;;;;;;8.02;4.40;;;19.50;65.80;;;;;;5093966;28;20016;-82
2021/06/24 11:11:14;;;;;;;9.23;6.38;;;19.60;65.70;;;;;;5095007;28;20034;-83
2021/06/24 11:13:41;;;;;;;10.55;5.55;;;19.50;65.50;;;;;;5094492;28;20020;-83
2021/06/24 11:16:09;;;;;;;8.32;3.40;;;19.40;65.30;;;;;;5094489;28;20024;-83
2021/06/24 11:18:35;;;;;;;6.15;2.88;;;19.40;65.20;;;;;;5094217;28;20039;-84
2021/06/24 11:21:06;;;;;;;11.38;6.15;;;19.40;65.50;;;;;;5094557;28;20032;-83
2021/06/24 11:23:49;;;;;;;7.30;4.28;;;19.50;65.40;;;;;;5093649;28;20050;-83
2021/06/24 11:26:18;;;;;;;11.68;7.03;;;19.50;64.80;;;;;;5093760;28;20035;-82
2021/06/24 11:28:55;;;;;;;14.50;6.30;;;19.40;65.20;;;;;;5093799;28;20070;-84
2021/06/24 11:31:23;;;;;;;8.82;5.07;;;19.40;65.20;;;;;;5094088;28;20020;-82
2021/06/24 11:37:15;;;;;;;8.63;3.92;;;19.50;65.10;;;;;;5095454;28;20028;-84
2021/06/24 11:39:43;;;;;;;15.07;8.32;;;19.60;65.30;;;;;;5079683;28;20030;-83
2021/06/24 11:42:14;;;;;;;10.60;5.70;;;19.60;63.80;;;;;;5093795;28;20479;-83
2021/06/24 11:44:58;;;;;;;10.07;4.55;;;19.60;63.60;;;;;;5093965;28;20024;-83
2021/06/24 11:47:32;;;;;;;11.45;7.57;;;19.60;64.50;;;;;;5094326;28;20498;-83
2021/06/24 12:01:53;;;;;;;6.07;2.50;;;19.60;65.20;;;;;;5095454;28;20092;-83
2021/06/24 12:04:24;;;;;;;11.13;6.70;;;19.60;65.40;;;;;;5093488;28;20038;-83
2021/06/24 12:07:06;;;;;;;8.50;5.30;;;19.70;65.00;;;;;;5093812;28;20080;-84
2021/06/24 12:09:48;;;;;;;8.88;5.60;;;19.70;65.50;;;;;;5092586;28;20475;-84
2021/06/24 12:12:22;;;;;;;8.27;4.72;;;19.70;64.80;;;;;;5092259;28;20027;-84
2021/06/24 12:14:51;;;;;;;5.82;3.83;;;19.70;65.10;;;;;;5092048;28;20024;-83
2021/06/24 12:17:18;;;;;;;8.80;5.53;;;19.80;65.20;;;;;;5092327;28;20034;-85
2021/06/24 12:20:12;;;;;;;9.60;5.35;;;19.90;65.10;;;;;;5093230;28;20438;-83
2021/06/24 12:22:50;;;;;;;12.73;7.88;;;19.80;64.70;;;;;;5093701;28;20020;-84
2021/06/24 12:25:25;;;;;;;7.43;5.13;;;19.70;64.90;;;;;;5100632;28;20466;-83
2021/06/24 12:27:59;;;;;;;4.78;1.88;;;19.70;65.30;;;;;;5101366;28;20028;-83
2021/06/24 12:30:31;;;;;;;3.58;1.80;;;19.60;66.10;;;;;;5099111;28;20020;-83
2021/06/24 12:32:59;;;;;;;11.30;6.60;;;19.60;66.40;;;;;;5113232;28;20012;-84
2021/06/24 12:35:33;;;;;;;5.57;2.08;;;19.70;66.20;;;;;;5095130;28;20044;-84
2021/06/24 12:38:01;;;;;;;3.42;1.60;;;19.60;66.40;;;;;;5093552;28;20375;-84
2021/06/24 12:40:39;;;;;;;3.95;1.70;;;19.70;66.50;;;;;;5093557;28;20460;-85
2021/06/24 12:43:06;;;;;;;3.35;1.92;;;19.90;66.10;;;;;;5093249;28;20373;-84
2021/06/24 12:45:37;;;;;;;2.55;1.73;;;20.00;65.70;;;;;;5094058;28;20035;-84
2021/06/24 12:48:04;;;;;;;5.03;2.17;;;20.20;65.20;;;;;;5095143;28;20024;-84
2021/06/24 12:50:31;;;;;;;3.70;1.67;;;20.40;64.80;;;;;;5100869;28;20036;-83
2021/06/24 12:53:03;;;;;;;8.43;4.38;;;20.50;64.30;;;;;;5101846;28;20091;-83
2021/06/24 12:55:47;;;;;;;4.28;2.10;;;20.60;63.90;;;;;;5094781;28;20093;-86
2021/06/24 12:58:22;;;;;;;3.50;1.83;;;20.60;63.90;;;;;;5093400;28;20016;-85
2021/06/24 13:01:12;;;;;;;3.70;1.50;;;20.70;63.60;;;;;;5092539;28;20066;-84
2021/06/24 13:03:57;;;;;;;3.63;2.00;;;20.80;63.50;;;;;;5094050;28;20039;-85